createdAt,value
2023-11-24T00:01:31.522Z,100982.92
2023-11-24T00:04:03.276Z,100978.16
2023-11-24T00:06:34.970Z,100966.05
2023-11-24T00:09:07.332Z,100961.41
2023-11-24T00:11:39.173Z,100963.45
2023-11-24T00:14:10.889Z,100955.30
2023-11-24T00:16:42.518Z,100948.56
2023-11-24T00:19:16.639Z,100947.50
2023-11-24T00:21:49.033Z,100946.95
2023-11-24T00:24:20.424Z,100944.42
2023-11-24T00:26:53.955Z,100941.17
2023-11-24T00:29:24.953Z,100947.00
2023-11-24T00:31:56.098Z,100947.39
2023-11-24T00:34:27.382Z,100942.48
2023-11-24T00:36:59.706Z,100938.66
2023-11-24T00:39:30.912Z,100936.25
2023-11-24T00:42:02.263Z,100930.72
2023-11-24T00:44:33.302Z,100927.56
2023-11-24T00:47:06.499Z,100922.30
2023-11-24T00:49:37.702Z,100924.36
2023-11-24T00:52:09.632Z,100927.89
2023-11-24T00:54:40.925Z,100915.70
2023-11-24T00:57:12.177Z,100907.09
2023-11-24T00:59:43.457Z,100901.97
2023-11-24T01:02:14.584Z,100902.83
2023-11-24T01:04:46.023Z,100897.70
2023-11-24T01:07:17.421Z,100897.61
2023-11-24T01:09:49.293Z,100895.38
2023-11-24T01:12:20.513Z,100890.35
2023-11-24T01:14:51.568Z,100896.89
2023-11-24T01:17:23.032Z,100891.10
2023-11-24T01:19:54.231Z,100891.86
2023-11-24T01:22:26.067Z,100886.71
2023-11-24T01:24:57.326Z,100877.91
2023-11-24T01:27:31.366Z,100873.58
2023-11-24T01:30:02.524Z,100885.05
2023-11-24T01:32:34.077Z,100879.68
2023-11-24T01:35:06.764Z,100870.16
2023-11-24T01:37:37.661Z,100868.73
2023-11-24T01:40:11.844Z,100864.50
2023-11-24T01:42:43.620Z,100861.13
2023-11-24T01:45:14.731Z,100853.94
2023-11-24T01:47:48.255Z,100852.71
2023-11-24T01:50:19.776Z,100844.80
2023-11-24T01:52:51.430Z,100837.63
2023-11-24T01:55:24.606Z,100836.60
2023-11-24T01:57:57.748Z,100833.34
2023-11-24T02:00:29.349Z,100824.98
2023-11-24T02:03:01.839Z,100819.41
2023-11-24T02:05:33.356Z,100820.19
2023-11-24T02:08:05.251Z,100818.92
2023-11-24T02:10:37.118Z,100809.61
2023-11-24T02:13:09.481Z,100809.66
2023-11-24T02:15:41.704Z,100806.98
2023-11-24T02:18:13.696Z,100800.75
2023-11-24T02:20:45.489Z,100798.23
2023-11-24T02:23:17.573Z,100798.57
2023-11-24T02:25:48.602Z,100794.09
2023-11-24T02:28:19.560Z,100788.25
2023-11-24T02:30:50.834Z,100786.33
2023-11-24T02:33:24.107Z,100781.40
2023-11-24T02:35:55.623Z,100775.15
2023-11-24T02:38:26.597Z,100771.45
2023-11-24T02:40:57.836Z,100768.45
2023-11-24T02:43:29.754Z,100767.19
2023-11-24T02:46:01.701Z,100758.30
2023-11-24T02:48:33.356Z,100751.71
2023-11-24T02:51:08.147Z,100744.58
2023-11-24T02:53:40.969Z,100746.41
2023-11-24T02:56:12.729Z,100747.77
2023-11-24T02:58:44.227Z,100752.20
2023-11-24T03:01:15.312Z,100751.62
2023-11-24T03:03:46.913Z,100747.95
2023-11-24T03:06:19.247Z,100747.61
2023-11-24T03:08:50.190Z,100749.31
2023-11-24T03:11:21.244Z,100745.65
2023-11-24T03:13:52.194Z,100733.73
2023-11-24T03:16:23.428Z,100727.02
2023-11-24T03:18:55.662Z,100724.81
2023-11-24T03:21:27.110Z,100715.86
2023-11-24T03:23:58.328Z,100710.55
2023-11-24T03:26:29.976Z,100707.17
2023-11-24T03:29:01.442Z,100705.73
2023-11-24T03:31:32.855Z,100694.14
2023-11-24T03:34:05.113Z,100683.54
2023-11-24T03:36:36.933Z,100682.63
2023-11-24T03:39:08.685Z,100683.85
2023-11-24T03:41:39.813Z,100673.02
2023-11-24T03:44:11.150Z,100680.11
2023-11-24T03:46:42.531Z,100692.38
2023-11-24T03:49:13.739Z,100683.52
2023-11-24T03:51:45.346Z,100682.16
2023-11-24T03:54:17.194Z,100682.96
2023-11-24T03:56:48.575Z,100680.35
2023-11-24T03:59:19.687Z,100662.39
2023-11-24T04:01:51.566Z,100657.91
2023-11-24T04:04:23.168Z,100662.29
2023-11-24T04:06:54.368Z,100664.52
2023-11-24T04:09:26.440Z,100661.72
2023-11-24T04:11:57.639Z,100658.32
2023-11-24T04:14:28.985Z,100646.00
2023-11-24T04:17:01.517Z,100642.30
2023-11-24T04:19:32.792Z,100635.77
2023-11-24T04:22:03.979Z,100625.90
2023-11-24T04:24:35.052Z,100626.56
2023-11-24T04:27:07.076Z,100626.58
2023-11-24T04:29:38.721Z,100618.46
2023-11-24T04:32:10.885Z,100611.52
2023-11-24T04:34:42.444Z,100610.25
2023-11-24T04:37:15.550Z,100603.74
2023-11-24T04:39:47.893Z,100605.65
2023-11-24T04:42:19.754Z,100600.27
2023-11-24T04:44:53.175Z,100595.52
2023-11-24T04:47:24.242Z,100596.48
2023-11-24T04:49:55.566Z,100597.58
2023-11-24T04:52:26.660Z,100593.89
2023-11-24T04:54:58.061Z,100586.55
2023-11-24T04:57:29.454Z,100584.25
2023-11-24T05:00:00.780Z,100589.09
2023-11-24T05:02:31.942Z,100592.11
2023-11-24T05:05:03.533Z,100586.58
2023-11-24T05:07:35.837Z,100585.79
2023-11-24T05:10:10.865Z,100581.32
2023-11-24T05:12:42.232Z,100575.09
2023-11-24T05:15:14.497Z,100564.80
2023-11-24T05:17:45.747Z,100563.55
2023-11-24T05:20:19.374Z,100564.52
2023-11-24T05:22:51.361Z,100571.52
2023-11-24T05:25:22.344Z,100578.86
2023-11-24T05:27:53.334Z,100571.53
2023-11-24T05:30:24.992Z,100564.58
2023-11-24T05:32:55.862Z,100558.46
2023-11-24T05:35:27.114Z,100542.28
2023-11-24T05:37:59.428Z,100531.28
2023-11-24T05:40:30.713Z,100543.33
2023-11-24T05:43:02.221Z,100541.18
2023-11-24T05:45:35.887Z,100543.05
2023-11-24T05:48:07.991Z,100549.73
2023-11-24T05:50:40.072Z,100554.52
2023-11-24T05:53:10.947Z,100543.45
2023-11-24T05:55:42.259Z,100528.89
2023-11-24T05:58:13.461Z,100520.48
2023-11-24T06:00:45.527Z,100522.17
2023-11-24T06:03:16.778Z,100521.07
2023-11-24T06:05:48.065Z,100517.23
2023-11-24T06:08:19.714Z,100514.91
2023-11-24T06:10:51.587Z,100507.23
2023-11-24T06:13:23.448Z,100503.58
2023-11-24T06:15:56.072Z,100507.59
2023-11-24T06:18:27.724Z,100502.06
2023-11-24T06:20:59.117Z,100496.98
2023-11-24T06:23:30.845Z,100492.68
2023-11-24T06:26:01.718Z,100493.96
2023-11-24T06:28:33.151Z,100497.27
2023-11-24T06:31:04.672Z,100495.89
2023-11-24T06:33:36.345Z,100494.83
2023-11-24T06:36:08.602Z,100498.15
2023-11-24T06:38:41.402Z,100499.67
2023-11-24T06:41:13.424Z,100492.51
2023-11-24T06:43:44.506Z,100487.84
2023-11-24T06:46:15.576Z,100484.50
2023-11-24T06:48:46.764Z,100481.73
2023-11-24T06:51:19.232Z,100481.02
2023-11-24T06:53:51.013Z,100479.77
2023-11-24T06:56:22.664Z,100471.50
2023-11-24T06:58:55.852Z,100465.33
2023-11-24T07:01:34.188Z,100463.21
2023-11-24T07:04:06.811Z,100459.45
2023-11-24T07:06:37.958Z,100453.77
2023-11-24T07:09:12.387Z,100441.66
2023-11-24T07:11:44.799Z,100432.89
2023-11-24T07:14:16.202Z,100438.77
2023-11-24T07:16:47.909Z,100450.56
2023-11-24T07:19:20.368Z,100462.67
2023-11-24T07:21:51.477Z,100464.32
2023-11-24T07:24:22.463Z,100459.41
2023-11-24T07:26:55.136Z,100454.85
2023-11-24T07:29:26.544Z,100447.84
2023-11-24T07:31:57.645Z,100436.54
2023-11-24T07:34:29.168Z,100419.84
2023-11-24T07:37:02.182Z,100414.23
2023-11-24T07:39:33.652Z,100427.15
2023-11-24T07:42:05.727Z,100446.58
2023-11-24T07:44:37.965Z,100443.17
2023-11-24T07:47:10.035Z,100428.09
2023-11-24T07:49:41.453Z,100417.83
2023-11-24T07:52:13.216Z,100420.30
2023-11-24T07:54:44.709Z,100423.92
2023-11-24T07:57:15.832Z,100425.30
2023-11-24T07:59:47.940Z,100415.84
2023-11-24T08:02:19.137Z,100415.45
2023-11-24T08:04:50.450Z,100417.58
2023-11-24T08:07:22.959Z,100419.94
2023-11-24T08:09:54.601Z,100417.55
2023-11-24T08:12:25.898Z,100421.24
2023-11-24T08:15:00.033Z,100426.46
2023-11-24T08:17:31.468Z,100423.61
2023-11-24T08:20:05.892Z,100416.59
2023-11-24T08:22:37.248Z,100411.34
2023-11-24T08:25:11.790Z,100405.30
2023-11-24T08:27:45.839Z,100408.14
2023-11-24T08:30:18.164Z,100418.10
2023-11-24T08:32:50.536Z,100421.15
2023-11-24T08:35:21.518Z,100423.84
2023-11-24T08:37:52.955Z,100420.55
2023-11-24T08:40:25.687Z,100409.13
2023-11-24T08:42:59.164Z,100407.56
2023-11-24T08:45:30.811Z,100410.27
2023-11-24T08:48:01.910Z,100415.23
2023-11-24T08:50:32.989Z,100408.27
2023-11-24T08:53:06.828Z,100397.28
2023-11-24T08:55:37.680Z,100398.21
2023-11-24T08:58:08.642Z,100401.26
2023-11-24T09:00:40.068Z,100390.98
2023-11-24T09:03:11.824Z,100387.60
2023-11-24T09:05:44.573Z,100385.53
2023-11-24T09:08:18.403Z,100374.89
2023-11-24T09:10:51.100Z,100370.23
2023-11-24T09:13:23.336Z,100367.27
2023-11-24T09:15:54.964Z,100367.27
2023-11-24T09:18:26.917Z,100365.55
2023-11-24T09:21:01.047Z,100360.45
2023-11-24T09:23:32.713Z,100349.66
2023-11-24T09:26:06.647Z,100353.14
2023-11-24T09:28:38.836Z,100344.45
2023-11-24T09:31:13.780Z,100334.86
2023-11-24T09:33:45.118Z,100328.08
2023-11-24T09:36:16.626Z,100325.17
2023-11-24T09:38:49.499Z,100324.60
2023-11-24T09:41:22.078Z,100326.77
2023-11-24T09:43:53.839Z,100318.05
2023-11-24T09:46:33.598Z,100303.67
2023-11-24T09:49:12.281Z,100299.05
2023-11-24T09:51:43.901Z,100293.09
2023-11-24T09:54:19.190Z,100294.66
2023-11-24T09:56:51.220Z,100296.69
2023-11-24T09:59:23.650Z,100295.52
2023-11-24T10:01:58.908Z,100291.19
2023-11-24T10:04:30.288Z,100285.29
2023-11-24T10:07:02.427Z,100278.84
2023-11-24T10:09:36.575Z,100278.02
2023-11-24T10:12:09.020Z,100274.33
2023-11-24T10:14:44.937Z,100273.83
2023-11-24T10:17:16.210Z,100268.33
2023-11-24T10:19:47.181Z,100264.09
2023-11-24T10:22:20.438Z,100257.95
2023-11-24T10:24:51.565Z,100248.13
2023-11-24T10:27:24.123Z,100241.95
2023-11-24T10:29:55.309Z,100234.67
2023-11-24T10:32:26.637Z,100226.83
2023-11-24T10:34:59.149Z,100219.50
2023-11-24T10:37:30.711Z,100214.47
2023-11-24T10:40:03.723Z,100209.69
2023-11-24T10:42:35.993Z,100205.27
2023-11-24T10:45:11.159Z,100196.79
2023-11-24T10:47:52.762Z,100193.52
2023-11-24T10:50:29.294Z,100191.84
2023-11-24T10:53:12.986Z,100185.64
2023-11-24T10:55:45.541Z,100178.93
2023-11-24T10:58:17.637Z,100177.42
2023-11-24T11:00:49.612Z,100176.35
2023-11-24T11:03:20.607Z,100174.76
2023-11-24T11:06:05.315Z,100167.02
2023-11-24T11:08:39.858Z,100164.71
2023-11-24T11:11:28.780Z,100159.83
2023-11-24T11:14:00.774Z,100152.66
2023-11-24T11:16:32.635Z,100153.00
2023-11-24T11:19:32.724Z,100147.34
2023-11-24T11:22:08.398Z,100139.16
2023-11-24T11:24:39.664Z,100130.42
2023-11-24T11:27:27.987Z,100120.73
2023-11-24T11:29:59.516Z,100112.38
2023-11-24T11:32:34.070Z,100111.17
2023-11-24T11:35:06.063Z,100101.73
2023-11-24T11:37:37.328Z,100089.20
2023-11-24T11:40:20.808Z,100084.83
2023-11-24T11:43:00.317Z,100069.76
2023-11-24T11:45:34.848Z,100062.55
2023-11-24T11:48:10.430Z,100060.90
2023-11-24T11:50:51.924Z,100059.38
2023-11-24T11:53:26.721Z,100055.23
2023-11-24T11:55:58.380Z,100051.38
2023-11-24T11:58:30.560Z,100038.02
2023-11-24T12:01:01.873Z,100031.14
2023-11-24T12:03:33.505Z,100021.77
2023-11-24T12:06:08.368Z,100025.50
2023-11-24T12:08:40.293Z,100020.95
2023-11-24T12:11:14.220Z,100021.80
2023-11-24T12:13:45.550Z,100015.04
2023-11-24T12:16:16.751Z,100003.86
2023-11-24T12:18:54.212Z,100000.41
2023-11-24T12:21:25.362Z,100002.28
2023-11-24T12:24:08.323Z,100003.63
2023-11-24T12:26:46.908Z,99993.27
2023-11-24T12:29:18.240Z,99987.08
2023-11-24T12:31:49.288Z,99986.77
2023-11-24T12:34:21.969Z,99981.64
2023-11-24T12:36:55.988Z,99973.04
2023-11-24T12:39:31.924Z,99968.06
2023-11-24T12:42:05.517Z,99967.86
2023-11-24T12:44:37.994Z,99966.10
2023-11-24T12:47:15.024Z,99964.18
2023-11-24T12:50:02.093Z,99954.16
2023-11-24T12:52:37.422Z,99945.67
2023-11-24T12:55:11.847Z,99945.11
2023-11-24T12:57:44.830Z,99944.39
2023-11-24T13:00:18.434Z,99945.11
2023-11-24T13:02:49.824Z,99936.37
2023-11-24T13:05:21.407Z,99924.06
2023-11-24T13:07:53.129Z,99921.00
2023-11-24T13:10:24.187Z,99921.48
2023-11-24T13:12:55.656Z,99919.63
2023-11-24T13:15:26.853Z,99912.31
2023-11-24T13:17:58.121Z,99900.98
2023-11-24T13:20:33.800Z,99899.83
2023-11-24T13:23:05.639Z,99888.33
2023-11-24T13:25:38.040Z,99880.79
2023-11-24T13:28:09.641Z,99874.98
2023-11-24T13:30:41.098Z,99878.36
2023-11-24T13:33:12.391Z,99881.23
2023-11-24T13:35:43.787Z,99876.42
2023-11-24T13:38:16.479Z,99872.77
2023-11-24T13:40:48.841Z,99866.09
2023-11-24T13:43:20.540Z,99864.25
2023-11-24T13:45:52.806Z,99861.42
2023-11-24T13:48:24.957Z,99862.86
2023-11-24T13:50:58.405Z,99855.22
2023-11-24T13:53:32.265Z,99851.64
2023-11-24T13:56:03.328Z,99850.73
2023-11-24T13:58:39.641Z,99848.98
2023-11-24T14:01:11.062Z,99845.16
2023-11-24T14:03:44.637Z,99837.11
2023-11-24T14:06:16.766Z,99834.20
2023-11-24T14:08:48.635Z,99831.80
2023-11-24T14:11:20.170Z,99829.87
2023-11-24T14:13:51.854Z,99821.48
2023-11-24T14:16:25.007Z,99822.50
2023-11-24T14:18:56.289Z,99823.50
2023-11-24T14:21:27.594Z,99821.36
2023-11-24T14:24:01.634Z,99819.54
2023-11-24T14:26:34.564Z,99818.23
2023-11-24T14:29:07.237Z,99813.95
2023-11-24T14:31:38.396Z,99811.06
2023-11-24T14:34:10.933Z,99807.85
2023-11-24T14:36:43.650Z,99809.14
2023-11-24T14:39:28.134Z,99805.31
2023-11-24T14:41:59.811Z,99800.64
2023-11-24T14:44:31.198Z,99798.34
2023-11-24T14:47:02.882Z,99786.48
2023-11-24T14:49:34.604Z,99778.05
2023-11-24T14:52:09.009Z,99774.77
2023-11-24T14:54:40.373Z,99776.00
2023-11-24T14:57:14.145Z,99777.88
2023-11-24T14:59:45.459Z,99774.98
2023-11-24T15:02:18.227Z,99776.73
2023-11-24T15:04:49.382Z,99772.27
2023-11-24T15:07:21.118Z,99770.92
2023-11-24T15:09:53.915Z,99772.38
2023-11-24T15:12:28.355Z,99764.42
2023-11-24T15:15:00.450Z,99761.73
2023-11-24T15:17:32.199Z,99757.91
2023-11-24T15:20:26.664Z,99756.71
2023-11-24T15:22:59.651Z,99761.56
2023-11-24T15:25:36.887Z,99758.08
2023-11-24T15:28:14.039Z,99749.84
2023-11-24T15:30:46.299Z,99745.45
2023-11-24T15:33:19.638Z,99744.69
2023-11-24T15:35:51.162Z,99743.14
2023-11-24T15:38:24.293Z,99741.17
2023-11-24T15:40:55.975Z,99743.39
2023-11-24T15:43:27.229Z,99745.32
2023-11-24T15:46:00.218Z,99738.31
2023-11-24T15:48:34.220Z,99739.69
2023-11-24T15:51:06.392Z,99735.35
2023-11-24T15:53:37.200Z,99731.08
2023-11-24T15:56:11.909Z,99727.27
2023-11-24T15:58:44.715Z,99716.48
2023-11-24T16:01:16.703Z,99710.65
2023-11-24T16:03:47.794Z,99710.03
2023-11-24T16:06:21.871Z,99717.35
2023-11-24T16:08:56.510Z,99722.89
2023-11-24T16:11:28.231Z,99714.91
2023-11-24T16:13:59.882Z,99712.17
2023-11-24T16:16:32.434Z,99710.73
2023-11-24T16:19:03.445Z,99711.64
2023-11-24T16:21:34.651Z,99714.47
2023-11-24T16:24:06.366Z,99721.05
2023-11-24T16:26:37.261Z,99712.64
2023-11-24T16:29:08.695Z,99712.80
2023-11-24T16:31:44.374Z,99710.67
2023-11-24T16:34:16.448Z,99705.72
2023-11-24T16:36:47.963Z,99709.29
2023-11-24T16:39:23.930Z,99706.46
2023-11-24T16:41:55.309Z,99701.78
2023-11-24T16:44:26.152Z,99694.63
2023-11-24T16:47:01.236Z,99685.02
2023-11-24T16:49:32.456Z,99685.81
2023-11-24T16:52:04.707Z,99676.95
2023-11-24T16:54:36.390Z,99672.60
2023-11-24T16:57:09.634Z,99671.61
2023-11-24T16:59:40.636Z,99670.00
2023-11-24T17:02:11.707Z,99668.95
2023-11-24T17:04:43.242Z,99664.45
2023-11-24T17:07:14.544Z,99664.56
2023-11-24T17:09:47.372Z,99661.32
2023-11-24T17:12:19.764Z,99655.50
2023-11-24T17:14:51.268Z,99646.27
2023-11-24T17:17:22.699Z,99642.42
2023-11-24T17:19:54.197Z,99643.13
2023-11-24T17:22:25.500Z,99635.30
2023-11-24T17:24:57.151Z,99637.16
2023-11-24T17:27:30.206Z,99632.48
2023-11-24T17:30:01.945Z,99631.11
2023-11-24T17:32:33.040Z,99619.77
2023-11-24T17:35:07.235Z,99620.39
2023-11-24T17:37:39.152Z,99617.91
2023-11-24T17:40:15.852Z,99615.97
2023-11-24T17:42:47.692Z,99618.55
2023-11-24T17:45:19.628Z,99616.02
2023-11-24T17:47:52.991Z,99615.26
2023-11-24T17:50:24.806Z,99616.38
2023-11-24T17:52:55.861Z,99612.30
2023-11-24T17:55:27.569Z,99611.48
2023-11-24T17:57:58.712Z,99612.56
2023-11-24T18:00:33.371Z,99610.47
2023-11-24T18:03:06.921Z,99608.77
2023-11-24T18:05:38.625Z,99607.92
2023-11-24T18:08:09.960Z,99607.33
2023-11-24T18:10:41.273Z,99601.45
2023-11-24T18:13:12.374Z,99591.35
2023-11-24T18:15:43.791Z,99590.29
2023-11-24T18:18:14.996Z,99587.60
2023-11-24T18:20:46.924Z,99589.43
2023-11-24T18:23:17.993Z,99590.58
2023-11-24T18:25:51.402Z,99581.27
2023-11-24T18:28:22.294Z,99573.84
2023-11-24T18:30:54.471Z,99580.09
2023-11-24T18:33:26.821Z,99581.61
2023-11-24T18:35:58.091Z,99583.83
2023-11-24T18:38:29.978Z,99587.05
2023-11-24T18:41:01.208Z,99587.88
2023-11-24T18:43:39.499Z,99578.12
2023-11-24T18:46:12.081Z,99577.10
2023-11-24T18:48:43.389Z,99573.01
2023-11-24T18:51:15.717Z,99570.27
2023-11-24T18:53:47.125Z,99571.36
2023-11-24T18:56:22.980Z,99574.35
2023-11-24T18:58:54.189Z,99566.20
2023-11-24T19:01:25.316Z,99563.41
2023-11-24T19:03:56.548Z,99556.12
2023-11-24T19:06:28.950Z,99559.82
2023-11-24T19:08:59.776Z,99563.83
2023-11-24T19:11:31.171Z,99568.15
2023-11-24T19:14:02.933Z,99559.48
2023-11-24T19:16:34.343Z,99552.98
2023-11-24T19:19:05.794Z,99552.46
2023-11-24T19:21:36.900Z,99550.74
2023-11-24T19:24:09.842Z,99553.66
2023-11-24T19:26:40.913Z,99556.45
2023-11-24T19:29:12.669Z,99563.71
2023-11-24T19:31:44.042Z,99562.58
2023-11-24T19:34:15.382Z,99568.59
2023-11-24T19:36:46.393Z,99568.02
2023-11-24T19:39:18.085Z,99562.76
2023-11-24T19:41:48.952Z,99562.52
2023-11-24T19:44:21.248Z,99565.89
2023-11-24T19:46:52.344Z,99567.30
2023-11-24T19:49:23.632Z,99565.58
2023-11-24T19:51:54.713Z,99564.23
2023-11-24T19:54:25.639Z,99565.02
2023-11-24T19:56:56.856Z,99567.77
2023-11-24T19:59:28.161Z,99571.20
2023-11-24T20:01:59.974Z,99566.02
2023-11-24T20:04:31.685Z,99567.47
2023-11-24T20:07:03.022Z,99565.30
2023-11-24T20:09:34.180Z,99549.05
2023-11-24T20:12:05.455Z,99539.64
2023-11-24T20:14:36.847Z,99539.16
2023-11-24T20:17:09.812Z,99542.96
2023-11-24T20:19:40.889Z,99541.95
2023-11-24T20:22:11.815Z,99538.17
2023-11-24T20:24:43.952Z,99542.70
2023-11-24T20:27:15.088Z,99539.72
2023-11-24T20:29:46.355Z,99533.16
2023-11-24T20:32:17.916Z,99526.23
2023-11-24T20:34:50.502Z,99519.44
2023-11-24T20:37:21.577Z,99516.83
2023-11-24T20:39:57.245Z,99518.66
2023-11-24T20:42:28.427Z,99517.39
2023-11-24T20:44:59.462Z,99510.64
2023-11-24T20:47:31.049Z,99512.92
2023-11-24T20:50:02.112Z,99503.30
2023-11-24T20:52:33.225Z,99488.47
2023-11-24T20:55:04.555Z,99483.95
2023-11-24T20:57:35.973Z,99488.98
2023-11-24T21:00:11.733Z,99483.67
2023-11-24T21:02:43.463Z,99479.46
2023-11-24T21:05:14.829Z,99476.03
2023-11-24T21:07:46.111Z,99478.04
2023-11-24T21:10:17.786Z,99482.06
2023-11-24T21:12:49.387Z,99479.85
2023-11-24T21:15:20.574Z,99470.51
2023-11-24T21:17:51.857Z,99470.65
2023-11-24T21:20:24.778Z,99471.84
2023-11-24T21:22:55.784Z,99470.79
2023-11-24T21:25:29.318Z,99476.90
2023-11-24T21:28:01.330Z,99475.27
2023-11-24T21:30:32.326Z,99471.71
2023-11-24T21:33:03.505Z,99473.06
2023-11-24T21:35:35.035Z,99477.27
2023-11-24T21:38:06.151Z,99475.91
2023-11-24T21:40:37.097Z,99474.16
2023-11-24T21:43:08.147Z,99476.63
2023-11-24T21:45:39.443Z,99471.67
2023-11-24T21:48:11.126Z,99472.27
2023-11-24T21:50:42.586Z,99467.34
2023-11-24T21:53:15.025Z,99457.02
2023-11-24T21:55:46.604Z,99459.00
2023-11-24T21:58:19.054Z,99464.98
2023-11-24T22:00:50.522Z,99474.03
2023-11-24T22:03:22.312Z,99466.79
2023-11-24T22:05:54.228Z,99466.64
2023-11-24T22:08:25.347Z,99471.50
2023-11-24T22:10:56.794Z,99464.20
2023-11-24T22:13:27.981Z,99466.10
2023-11-24T22:15:59.410Z,99476.99
2023-11-24T22:18:32.016Z,99477.13
2023-11-24T22:21:03.326Z,99476.70
2023-11-24T22:23:34.408Z,99471.55
2023-11-24T22:26:06.084Z,99465.45
2023-11-24T22:28:37.056Z,99465.34
2023-11-24T22:31:08.829Z,99472.99
2023-11-24T22:33:41.033Z,99475.63
2023-11-24T22:36:19.403Z,99481.50
2023-11-24T22:38:51.597Z,99477.66
2023-11-24T22:41:24.000Z,99484.44
2023-11-24T22:43:56.787Z,99486.84
2023-11-24T22:46:28.967Z,99490.77
2023-11-24T22:49:00.267Z,99495.34
2023-11-24T22:51:31.365Z,99502.30
2023-11-24T22:54:02.356Z,99506.64
2023-11-24T22:56:34.049Z,99508.58
2023-11-24T22:59:05.643Z,99499.55
2023-11-24T23:01:36.982Z,99503.65
2023-11-24T23:04:09.018Z,99501.44
2023-11-24T23:06:40.360Z,99513.77
2023-11-24T23:09:11.508Z,99522.62
2023-11-24T23:11:42.561Z,99532.56
2023-11-24T23:14:14.389Z,99531.91
2023-11-24T23:16:46.081Z,99523.92
2023-11-24T23:19:17.090Z,99539.88
2023-11-24T23:21:50.156Z,99550.04
2023-11-24T23:24:21.056Z,99564.75
2023-11-24T23:26:52.173Z,99582.98
2023-11-24T23:29:23.283Z,99592.16
2023-11-24T23:31:54.723Z,99609.08
2023-11-24T23:34:26.696Z,99615.15
2023-11-24T23:36:58.220Z,99620.23
2023-11-24T23:39:29.773Z,99632.77
2023-11-24T23:42:03.734Z,99644.72
2023-11-24T23:44:36.968Z,99653.52
2023-11-24T23:47:08.458Z,99657.88
2023-11-24T23:49:40.448Z,99661.48
2023-11-24T23:52:12.300Z,99674.41
2023-11-24T23:54:43.832Z,99682.98
2023-11-24T23:57:15.606Z,99692.29
2023-11-24T23:59:47.070Z,99697.84
